createdAt,value
2022-12-12T00:01:51.151Z,6.60
2022-12-12T00:06:52.635Z,7.60
2022-12-12T00:11:54.119Z,7.40
2022-12-12T00:16:55.612Z,6.67
2022-12-12T00:21:57.095Z,6.80
2022-12-12T00:26:58.584Z,8.20
2022-12-12T00:32:00.092Z,8.50
2022-12-12T00:37:01.513Z,7.67
2022-12-12T00:42:03.218Z,7.87
2022-12-12T00:47:04.798Z,7.10
2022-12-12T00:52:06.268Z,7.77
2022-12-12T00:57:08.871Z,9.10
2022-12-12T01:02:10.489Z,7.70
2022-12-12T01:07:11.992Z,7.23
2022-12-12T01:12:13.431Z,7.53
2022-12-12T01:17:14.931Z,7.90
2022-12-12T01:22:16.493Z,7.67
2022-12-12T01:27:17.995Z,7.57
2022-12-12T01:32:19.423Z,7.07
2022-12-12T01:37:21.175Z,8.87
2022-12-12T01:42:22.652Z,6.40
2022-12-12T01:47:24.919Z,7.33
2022-12-12T01:52:38.444Z,7.10
2022-12-12T01:57:44.612Z,6.40
2022-12-12T02:02:47.076Z,7.00
2022-12-12T02:07:48.626Z,7.60
2022-12-12T02:12:50.284Z,7.60
2022-12-12T02:18:03.828Z,6.33
2022-12-12T02:23:17.644Z,6.80
2022-12-12T02:28:46.818Z,7.47
2022-12-12T02:34:00.788Z,6.77
2022-12-12T02:39:08.269Z,7.03
2022-12-12T02:44:21.870Z,6.93
2022-12-12T02:49:38.852Z,8.07
2022-12-12T02:54:40.277Z,7.23
2022-12-12T02:59:45.098Z,7.03
2022-12-12T03:05:23.788Z,6.57
2022-12-12T03:10:52.905Z,6.10
2022-12-12T03:16:16.112Z,6.43
2022-12-12T03:21:39.429Z,7.80
2022-12-12T03:26:54.888Z,7.33
2022-12-12T03:32:03.418Z,7.83
2022-12-12T03:37:19.558Z,6.63
2022-12-12T03:42:23.812Z,7.60
2022-12-12T03:47:39.437Z,6.97
2022-12-12T03:52:45.575Z,5.53
2022-12-12T03:58:32.371Z,6.80
2022-12-12T04:03:49.025Z,6.73
2022-12-12T04:08:52.035Z,7.10
2022-12-12T04:14:07.994Z,7.37
2022-12-12T04:19:19.619Z,7.80
2022-12-12T04:24:34.742Z,8.37
2022-12-12T04:29:39.020Z,7.63
2022-12-12T04:35:14.953Z,8.10
2022-12-12T04:40:24.732Z,7.73
2022-12-12T04:45:34.308Z,8.60
2022-12-12T04:50:37.833Z,9.73
2022-12-12T04:55:44.368Z,8.93
2022-12-12T05:00:51.339Z,7.57
2022-12-12T05:06:09.022Z,8.43
2022-12-12T05:11:12.057Z,8.93
2022-12-12T05:16:29.099Z,8.80
2022-12-12T05:21:30.847Z,9.40
2022-12-12T05:26:34.381Z,9.83
2022-12-12T05:31:36.182Z,8.00
2022-12-12T05:36:37.677Z,8.00
2022-12-12T05:41:39.140Z,8.17
2022-12-12T05:46:40.568Z,7.73
2022-12-12T05:51:42.007Z,8.50
2022-12-12T05:56:43.428Z,8.67
2022-12-12T06:01:44.980Z,9.07
2022-12-12T06:06:46.535Z,8.20
2022-12-12T06:11:48.009Z,8.13
2022-12-12T06:16:49.504Z,8.73
2022-12-12T06:21:51.025Z,10.00
2022-12-12T06:26:53.041Z,8.63
2022-12-12T06:31:54.621Z,9.00
2022-12-12T06:36:56.109Z,7.83
2022-12-12T06:41:57.574Z,7.73
2022-12-12T06:46:59.088Z,9.00
2022-12-12T06:52:00.592Z,8.63
2022-12-12T06:57:02.091Z,7.90
2022-12-12T07:02:04.087Z,8.97
2022-12-12T07:07:05.755Z,8.17
2022-12-12T07:12:07.288Z,8.17
2022-12-12T07:17:08.780Z,7.00
2022-12-12T07:22:10.819Z,7.73
2022-12-12T07:27:16.970Z,7.93
2022-12-12T07:32:22.728Z,7.93
2022-12-12T07:37:24.243Z,8.17
2022-12-12T07:42:25.768Z,8.20
2022-12-12T07:47:27.248Z,8.33
2022-12-12T07:52:28.751Z,7.93
2022-12-12T07:57:30.783Z,8.30
2022-12-12T08:02:32.274Z,7.33
2022-12-12T08:07:33.804Z,8.03
2022-12-12T08:12:35.356Z,8.90
2022-12-12T08:17:36.833Z,7.40
2022-12-12T08:22:38.311Z,8.90
2022-12-12T08:27:39.831Z,8.40
2022-12-12T08:32:41.317Z,8.17
2022-12-12T08:37:42.785Z,10.93
2022-12-12T08:42:44.291Z,11.17
2022-12-12T08:47:45.832Z,10.30
2022-12-12T08:52:47.324Z,10.43
2022-12-12T08:57:48.820Z,8.57
2022-12-12T09:02:50.330Z,9.57
2022-12-12T09:07:52.102Z,9.13
2022-12-12T09:12:54.833Z,7.97
2022-12-12T09:17:56.340Z,9.07
2022-12-12T09:22:57.793Z,10.27
2022-12-12T09:27:59.249Z,9.30
2022-12-12T09:33:00.703Z,10.67
2022-12-12T09:38:02.462Z,9.33
2022-12-12T09:43:04.171Z,9.73
2022-12-12T09:48:07.298Z,9.57
2022-12-12T09:53:15.326Z,10.50
2022-12-12T09:58:51.385Z,8.87
2022-12-12T10:04:31.120Z,10.30
2022-12-12T10:09:50.861Z,10.17
2022-12-12T10:14:59.674Z,8.98
2022-12-12T10:20:27.522Z,8.27
2022-12-12T10:25:41.469Z,9.77
2022-12-12T10:30:55.283Z,9.60
2022-12-12T10:36:11.856Z,11.73
2022-12-12T10:41:42.722Z,10.63
2022-12-12T10:46:59.638Z,10.80
2022-12-12T10:52:06.772Z,10.73
2022-12-12T10:57:19.964Z,10.77
2022-12-12T11:02:37.003Z,11.30
2022-12-12T11:07:44.908Z,11.85
2022-12-12T11:12:54.960Z,11.47
2022-12-12T11:18:01.251Z,10.75
2022-12-12T11:23:18.497Z,10.75
2022-12-12T11:28:23.908Z,11.43
2022-12-12T11:33:45.117Z,11.13
2022-12-12T11:38:55.869Z,11.23
2022-12-12T11:43:59.273Z,10.52
2022-12-12T11:49:04.411Z,10.80
2022-12-12T11:54:13.323Z,9.60
2022-12-12T11:59:23.684Z,8.97
2022-12-12T12:04:45.902Z,9.90
2022-12-12T12:09:57.154Z,10.30
2022-12-12T12:15:18.351Z,9.82
2022-12-12T12:20:31.177Z,9.20
2022-12-12T12:25:40.965Z,9.55
2022-12-12T12:36:19.376Z,10.05
2022-12-12T12:41:33.984Z,10.20
2022-12-12T12:47:14.548Z,10.45
2022-12-12T12:52:38.783Z,9.23
2022-12-12T12:57:44.590Z,10.20
2022-12-12T13:02:50.214Z,9.98
2022-12-12T13:07:59.989Z,10.60
2022-12-12T13:18:14.355Z,10.50
2022-12-12T13:23:38.092Z,10.57
2022-12-12T13:28:51.435Z,9.95
2022-12-12T13:34:04.906Z,10.00
2022-12-12T13:39:08.263Z,9.38
2022-12-12T13:44:33.996Z,11.38
2022-12-12T13:49:54.041Z,11.55
2022-12-12T13:55:15.405Z,10.85
2022-12-12T14:00:18.283Z,10.05
2022-12-12T14:05:24.222Z,10.23
2022-12-12T14:10:34.182Z,9.85
2022-12-12T14:15:36.205Z,9.90
2022-12-12T14:20:41.833Z,8.30
2022-12-12T14:25:43.367Z,10.68
2022-12-12T14:30:47.882Z,9.88
2022-12-12T14:36:04.506Z,9.85
2022-12-12T14:41:13.995Z,10.30
2022-12-12T14:46:17.411Z,9.57
2022-12-12T14:51:28.951Z,10.35
2022-12-12T14:56:40.523Z,9.95
2022-12-12T15:01:51.282Z,10.35
2022-12-12T15:06:54.443Z,9.90
2022-12-12T15:12:05.138Z,11.07
2022-12-12T15:17:12.196Z,10.35
2022-12-12T15:22:29.194Z,11.13
2022-12-12T15:27:47.040Z,11.88
2022-12-12T15:32:51.179Z,10.15
2022-12-12T15:38:00.601Z,11.23
2022-12-12T15:43:10.911Z,11.27
2022-12-12T15:48:17.332Z,10.48
2022-12-12T22:11:40.369Z,10.87
2022-12-12T22:17:10.759Z,9.87
2022-12-12T22:22:12.319Z,9.73
2022-12-12T22:27:13.912Z,11.57
2022-12-12T22:32:15.498Z,8.93
2022-12-12T22:37:17.098Z,9.17
2022-12-12T22:42:18.649Z,9.23
2022-12-12T22:47:20.138Z,9.30
2022-12-12T22:52:21.644Z,11.57
2022-12-12T22:57:23.139Z,9.50
2022-12-12T23:02:25.268Z,9.70
2022-12-12T23:07:27.006Z,9.13
2022-12-12T23:12:28.743Z,8.37
2022-12-12T23:17:30.354Z,10.00
2022-12-12T23:22:32.187Z,9.23
2022-12-12T23:27:34.094Z,10.03
2022-12-12T23:32:36.256Z,9.70
2022-12-12T23:37:38.349Z,8.90
2022-12-12T23:42:41.799Z,9.23
2022-12-12T23:47:43.551Z,9.77
2022-12-12T23:52:45.449Z,10.23
2022-12-12T23:57:47.384Z,8.47
